METAR Luftfahrt Wetterdaten     LSZH Zürich Airport
Temperatur
8°C Temperatur
4°C Taupunkt
76% Feuchtigkeit



Wind
8 KM/h
5 MPS
2 M/S
4 KTS



60°
ONO
Aktuelle Wetterlage

Teilweise bewölkt Teilweise bewölkt
Luftdruck 1014.9 (hPa) - 29.97 (inHg)
Sichtweite 6 (Meile) - 9.7 (Km)
Flughafen
Flughafen Code LSZH

Position : Zürich Airport
Entfernung: 60 (Km)

Metar:
LSZH 272250Z AUTO 06004KT 9999 FEW027 BKN032 BKN037 08/04 Q1015 NOSIG

Zeit: 27-02-2024 23:50 CET